Time;durP1;ratioP1;P1;durP2;ratioP2;P2;SDS_P1;SDS_P2;PMS_P1;PMS_P2;Temp;Humidity;BMP_temperature;BMP_pressure;BME280_temperature;BME280_humidity;BME280_pressure;Samples;Min_cycle;Max_cycle;Signal;HPM_P1;HPM_P2
2022/12/15 00:40:12;;;;;;;7.43;6.70;;;;;;;-5.85;96.35;99278.81;5073565;28;20953;-72
2022/12/15 00:42:37;;;;;;;8.63;6.17;;;;;;;-5.79;96.38;99289.31;5073141;28;20424;-73
2022/12/15 00:45:03;;;;;;;10.97;6.70;;;;;;;-5.72;96.69;99297.19;5073552;28;20471;-73
2022/12/15 00:47:31;;;;;;;21.97;12.00;;;;;;;-5.72;96.05;99302.50;5073262;28;20224;-72
2022/12/15 01:20:16;;;;;;;7.50;6.90;;;;;;;-5.27;91.87;99285.88;5072955;28;20762;-73
2022/12/15 01:22:52;;;;;;;12.47;5.37;;;;;;;-5.24;91.44;99298.69;5072525;28;20404;-73
2022/12/15 01:25:20;;;;;;;12.53;8.13;;;;;;;-5.21;91.60;99285.75;5072378;28;20822;-72
2022/12/15 01:27:46;;;;;;;13.00;8.83;;;;;;;-5.19;90.71;99290.81;5071130;28;20963;-73
2022/12/15 01:30:14;;;;;;;7.30;6.47;;;;;;;-5.20;90.97;99302.53;5072169;28;20548;-72
2022/12/15 01:32:40;;;;;;;18.13;10.90;;;;;;;-5.23;91.46;99289.66;5072123;28;20213;-73
2022/12/15 01:35:06;;;;;;;8.27;5.60;;;;;;;-5.20;90.53;99290.00;5072414;28;20417;-74
2022/12/15 01:37:32;;;;;;;6.20;5.67;;;;;;;-5.27;90.72;99293.84;5072141;28;20221;-73
2022/12/15 01:42:41;;;;;;;3.87;3.67;;;;;;;-5.21;90.77;99300.88;5071952;28;20660;-73
2022/12/15 01:45:22;;;;;;;12.17;5.90;;;;;;;-5.22;89.66;99296.59;5072107;28;20457;-74
2022/12/15 01:47:48;;;;;;;5.03;4.53;;;;;;;-5.27;90.33;99299.16;5072034;28;20177;-73
2022/12/15 01:50:13;;;;;;;8.20;7.17;;;;;;;-5.22;90.12;99297.41;5072279;28;20417;-72
2022/12/15 01:52:39;;;;;;;9.30;8.43;;;;;;;-5.17;89.20;99310.03;5071675;28;20182;-73
2022/12/15 01:55:05;;;;;;;12.60;8.73;;;;;;;-5.07;89.15;99315.53;5071889;28;20408;-73
2022/12/15 01:57:34;;;;;;;8.97;8.07;;;;;;;-5.05;89.27;99312.66;5071715;28;20630;-73
2022/12/15 02:00:03;;;;;;;8.40;6.23;;;;;;;-5.04;88.24;99320.41;5071853;28;20413;-73
2022/12/15 02:02:29;;;;;;;9.00;6.53;;;;;;;-5.03;88.54;99321.22;5070166;28;20420;-73
2022/12/15 02:04:58;;;;;;;5.57;4.97;;;;;;;-5.03;88.06;99324.69;5070214;28;20998;-73
2022/12/15 02:07:23;;;;;;;9.70;8.27;;;;;;;-4.96;87.46;99313.88;5070243;28;20762;-73
2022/12/15 02:09:51;;;;;;;7.90;7.10;;;;;;;-4.96;87.11;99311.22;5071825;28;20420;-73
2022/12/15 02:12:33;;;;;;;5.67;5.17;;;;;;;-4.97;87.09;99318.38;5070185;28;20812;-73
2022/12/15 02:15:39;;;;;;;9.77;5.80;;;;;;;-4.81;86.77;99319.47;5070300;28;20841;-72
2022/12/15 02:18:31;;;;;;;10.43;9.33;;;;;;;-4.64;84.65;99320.31;5071541;28;20934;-73
2022/12/15 02:21:09;;;;;;;8.47;7.30;;;;;;;-4.64;84.42;99316.84;5071496;28;20911;-73
2022/12/15 02:24:01;;;;;;;11.37;6.97;;;;;;;-4.67;84.20;99322.66;5071148;28;20420;-73
2022/12/15 02:27:07;;;;;;;17.60;8.87;;;;;;;-4.59;83.28;99317.75;5070561;28;20413;-73
2022/12/15 02:30:10;;;;;;;6.90;6.17;;;;;;;-4.46;82.64;99316.66;5071174;28;20437;-73
2022/12/15 02:32:44;;;;;;;10.57;5.03;;;;;;;-4.50;82.04;99320.81;5070977;28;20413;-72
2022/12/15 02:35:17;;;;;;;14.77;5.20;;;;;;;-4.46;81.51;99327.31;5069943;28;20413;-72
2022/12/15 02:37:44;;;;;;;16.43;5.83;;;;;;;-4.51;82.07;99324.53;5071038;28;20421;-73
2022/12/15 02:40:09;;;;;;;15.10;6.97;;;;;;;-4.54;81.45;99333.00;5071124;28;20513;-73
2022/12/15 02:42:41;;;;;;;4.90;4.03;;;;;;;-4.60;82.15;99334.78;5069449;28;20846;-73
2022/12/15 02:45:10;;;;;;;11.40;7.50;;;;;;;-4.62;82.61;99333.44;5071043;28;20737;-73
2022/12/15 02:47:45;;;;;;;9.27;6.70;;;;;;;-4.60;83.23;99347.31;5070851;28;21162;-72
2022/12/15 02:50:22;;;;;;;6.87;4.57;;;;;;;-4.63;83.71;99348.59;5070933;28;20420;-73
2022/12/15 02:53:08;;;;;;;8.60;6.77;;;;;;;-4.71;84.05;99356.16;5070791;28;20850;-73
2022/12/15 02:55:45;;;;;;;8.63;5.53;;;;;;;-4.72;83.87;99359.88;5070920;28;20405;-73
2022/12/15 02:58:30;;;;;;;8.90;7.60;;;;;;;-4.82;85.32;99363.94;5070931;28;20428;-73
2022/12/15 03:01:04;;;;;;;2.50;2.33;;;;;;;-4.87;85.58;99374.53;5070920;28;20408;-73
2022/12/15 03:03:33;;;;;;;10.43;8.53;;;;;;;-5.02;86.19;99373.41;5069138;28;20779;-72
2022/12/15 03:06:01;;;;;;;20.83;9.77;;;;;;;-5.10;86.70;99375.38;5069506;28;20807;-73
2022/12/15 03:08:26;;;;;;;19.33;9.20;;;;;;;-5.08;87.28;99375.16;5069364;28;20424;-73
2022/12/15 03:10:53;;;;;;;36.20;10.13;;;;;;;-5.02;87.16;99370.75;5069390;28;20902;-72
2022/12/15 03:13:19;;;;;;;15.23;8.37;;;;;;;-4.99;88.11;99372.94;5069173;28;20178;-72
2022/12/15 03:15:44;;;;;;;28.53;11.90;;;;;;;-4.95;87.64;99369.56;5070705;28;20641;-72
2022/12/15 03:18:09;;;;;;;25.20;10.07;;;;;;;-4.88;87.54;99367.59;5070705;28;20178;-73
2022/12/15 03:20:35;;;;;;;30.20;13.17;;;;;;;-4.79;86.62;99363.47;5070750;28;20230;-72
2022/12/15 03:23:00;;;;;;;14.30;5.47;;;;;;;-4.76;86.84;99367.53;5070469;28;20177;-73
2022/12/15 03:25:26;;;;;;;6.83;5.37;;;;;;;-4.71;86.15;99369.47;5070632;28;20203;-74
2022/12/15 03:27:51;;;;;;;14.30;7.10;;;;;;;-4.69;86.59;99375.38;5069164;28;20171;-72
2022/12/15 03:30:17;;;;;;;10.40;9.37;;;;;;;-4.60;86.25;99373.97;5070282;28;20176;-72
2022/12/15 03:32:42;;;;;;;11.63;6.97;;;;;;;-4.67;85.85;99376.75;5070321;28;20656;-71
2022/12/15 03:35:08;;;;;;;9.73;8.73;;;;;;;-4.66;85.41;99374.91;5070428;28;20178;-72
2022/12/15 03:37:33;;;;;;;16.73;9.57;;;;;;;-4.59;85.45;99370.25;5073057;28;20244;-72
2022/12/15 03:39:58;;;;;;;10.23;8.00;;;;;;;-4.57;84.76;99363.63;5075103;28;20174;-72
2022/12/15 03:45:08;;;;;;;10.10;8.63;;;;;;;-4.55;84.65;99387.38;5074420;28;20750;-72
2022/12/15 03:47:33;;;;;;;8.73;6.03;;;;;;;-4.52;84.81;99386.88;5074633;28;20412;-72
2022/12/15 03:49:58;;;;;;;6.50;5.87;;;;;;;-4.43;84.76;99396.13;5074231;28;20170;-73
2022/12/15 03:52:24;;;;;;;3.67;3.20;;;;;;;-4.44;84.19;99388.38;5074287;28;20253;-72
2022/12/15 03:54:49;;;;;;;5.07;4.67;;;;;;;-4.43;84.22;99404.13;5074286;28;20274;-72
2022/12/15 03:57:14;;;;;;;7.13;4.63;;;;;;;-4.52;84.62;99400.19;5073144;28;20232;-72
2022/12/15 03:59:40;;;;;;;9.63;6.63;;;;;;;-4.59;85.13;99403.03;5074167;28;20185;-72
2022/12/15 04:02:05;;;;;;;5.93;5.47;;;;;;;-4.64;85.19;99404.75;5073988;28;20170;-72
2022/12/15 04:04:30;;;;;;;8.80;7.93;;;;;;;-4.68;85.64;99404.44;5072341;28;20576;-73
2022/12/15 04:06:56;;;;;;;8.03;7.33;;;;;;;-4.69;85.69;99424.13;5073894;28;20257;-72
2022/12/15 04:09:21;;;;;;;10.17;6.60;;;;;;;-4.69;85.27;99413.47;5073979;28;20232;-72
2022/12/15 04:11:46;;;;;;;8.07;7.27;;;;;;;-4.69;85.88;99412.69;5074055;28;20588;-75
2022/12/15 04:14:12;;;;;;;7.20;5.93;;;;;;;-4.73;86.14;99403.53;5073503;28;20189;-72
2022/12/15 04:16:37;;;;;;;7.73;7.00;;;;;;;-4.74;85.66;99417.91;5073820;28;20167;-71
2022/12/15 04:21:46;;;;;;;8.53;7.70;;;;;;;-4.62;85.92;99411.50;5074227;28;20165;-74
2022/12/15 05:32:33;;;;;;;3.63;3.27;;;;;;;-4.04;82.23;99442.41;5072643;28;20431;-74
2022/12/15 05:35:00;;;;;;;6.00;5.50;;;;;;;-4.03;81.95;99441.34;5072164;28;20444;-74
2022/12/15 05:37:25;;;;;;;8.13;4.50;;;;;;;-4.11;82.42;99447.06;5072405;28;20198;-73
2022/12/15 05:39:50;;;;;;;5.70;5.20;;;;;;;-4.09;82.30;99450.31;5072350;28;20837;-74
2022/12/15 05:42:15;;;;;;;11.70;4.40;;;;;;;-4.06;82.45;99457.00;5070859;28;20171;-74
2022/12/15 05:44:42;;;;;;;4.77;4.40;;;;;;;-4.08;83.02;99465.25;5072131;28;20205;-70
2022/12/15 05:47:08;;;;;;;10.03;4.97;;;;;;;-4.12;83.31;99461.47;5071871;28;20220;-74
2022/12/15 05:49:34;;;;;;;6.43;5.93;;;;;;;-4.11;83.51;99463.06;5072141;28;20436;-73
2022/12/15 05:51:59;;;;;;;7.20;6.00;;;;;;;-4.05;83.36;99469.28;5071866;28;20409;-72
2022/12/15 05:54:25;;;;;;;2.23;2.10;;;;;;;-4.08;83.75;99464.44;5071704;28;20424;-76
2022/12/15 05:56:50;;;;;;;7.23;5.37;;;;;;;-4.11;84.30;99467.59;5073323;28;20227;-79
2022/12/15 05:59:16;;;;;;;10.03;7.07;;;;;;;-4.10;84.53;99463.88;5079057;28;20187;-76
2022/12/15 06:01:41;;;;;;;6.20;5.60;;;;;;;-4.07;84.38;99471.41;5071474;28;20182;-77
2022/12/15 06:04:08;;;;;;;7.33;6.07;;;;;;;-4.09;83.86;99465.50;5071654;28;20202;-77
2022/12/15 06:06:33;;;;;;;7.87;5.70;;;;;;;-4.03;84.09;99472.56;5071723;28;20182;-80
2022/12/15 06:08:58;;;;;;;13.53;8.50;;;;;;;-4.03;83.69;99473.38;5071964;28;20427;-76
2022/12/15 06:11:24;;;;;;;7.73;7.07;;;;;;;-4.00;84.27;99475.53;5070969;28;20601;-79
2022/12/15 06:13:49;;;;;;;6.47;5.87;;;;;;;-3.93;84.04;99488.72;5071687;28;20258;-79
2022/12/15 06:16:17;;;;;;;7.47;6.43;;;;;;;-3.98;84.46;99489.44;5071541;28;20198;-76
2022/12/15 06:18:54;;;;;;;8.40;7.33;;;;;;;-4.03;85.10;99504.56;5071782;28;20182;-77
2022/12/15 06:21:28;;;;;;;8.80;7.90;;;;;;;-4.03;84.73;99497.38;5071676;28;20500;-76
2022/12/15 06:23:55;;;;;;;10.47;8.80;;;;;;;-3.96;84.86;99502.53;5071374;28;20417;-78
2022/12/15 06:26:42;;;;;;;12.00;9.93;;;;;;;-4.02;85.71;99496.31;5071651;28;20417;-75
2022/12/15 06:29:09;;;;;;;8.93;7.97;;;;;;;-3.92;85.17;99504.47;5070283;28;20429;-76
2022/12/15 06:31:36;;;;;;;9.93;9.00;;;;;;;-3.88;85.87;99496.03;5069905;28;20429;-74
2022/12/15 06:34:07;;;;;;;10.50;7.30;;;;;;;-3.85;85.58;99512.34;5070886;28;20467;-75
2022/12/15 06:36:33;;;;;;;9.63;8.73;;;;;;;-3.89;85.92;99497.88;5069849;28;20435;-78
2022/12/15 06:39:00;;;;;;;10.43;6.73;;;;;;;-3.93;86.31;99505.53;5071490;28;20880;-78
2022/12/15 06:41:28;;;;;;;5.03;4.63;;;;;;;-3.85;86.17;99514.22;5071081;28;20423;-77
2022/12/15 06:43:57;;;;;;;5.83;4.23;;;;;;;-3.90;86.61;99512.28;5070850;28;20433;-74
2022/12/15 06:46:24;;;;;;;10.17;9.07;;;;;;;-3.93;86.67;99513.53;5071011;28;20423;-77
2022/12/15 06:48:49;;;;;;;7.70;6.63;;;;;;;-3.86;86.59;99515.25;5071100;28;20409;-75
2022/12/15 06:51:15;;;;;;;7.00;6.00;;;;;;;-3.91;87.13;99510.63;5071376;28;20900;-79
2022/12/15 06:53:47;;;;;;;11.40;6.07;;;;;;;-3.91;87.52;99529.28;5071112;28;20187;-76
2022/12/15 06:56:17;;;;;;;8.87;7.23;;;;;;;-3.95;86.94;99536.16;5071034;28;20163;-76
2022/12/15 06:58:42;;;;;;;16.57;12.73;;;;;;;-3.95;87.67;99528.97;5070628;28;20424;-79
2022/12/15 07:01:07;;;;;;;9.63;8.63;;;;;;;-3.88;88.00;99528.84;5069454;28;20424;-76
2022/12/15 07:03:33;;;;;;;15.20;7.63;;;;;;;-3.94;88.00;99538.59;5070689;28;20182;-77
2022/12/15 07:06:01;;;;;;;12.00;9.03;;;;;;;-4.01;88.31;99537.13;5070796;28;20568;-77
2022/12/15 07:08:27;;;;;;;6.40;5.80;;;;;;;-4.03;88.93;99534.72;5070659;28;20413;-77
2022/12/15 07:10:52;;;;;;;12.67;8.13;;;;;;;-4.00;88.97;99536.91;5070464;28;20468;-77
2022/12/15 07:13:17;;;;;;;10.57;7.43;;;;;;;-4.01;89.24;99537.94;5069212;28;20179;-77
2022/12/15 07:15:43;;;;;;;7.83;7.03;;;;;;;-3.96;88.99;99545.22;5070789;28;20174;-77
2022/12/15 07:18:09;;;;;;;6.93;6.13;;;;;;;-3.90;89.06;99549.63;5070862;28;20693;-76
2022/12/15 07:20:34;;;;;;;13.93;9.47;;;;;;;-3.92;89.14;99547.16;5071035;28;20421;-77
2022/12/15 07:23:00;;;;;;;5.43;4.87;;;;;;;-3.96;89.78;99546.03;5069207;28;20177;-77
2022/12/15 07:25:25;;;;;;;4.63;4.23;;;;;;;-3.98;89.93;99563.31;5070606;28;20237;-77
2022/12/15 07:27:51;;;;;;;9.40;8.43;;;;;;;-3.95;90.17;99563.66;5071018;28;20610;-77
2022/12/15 07:30:16;;;;;;;5.97;5.37;;;;;;;-3.93;90.21;99574.09;5070579;28;20202;-77
2022/12/15 07:32:43;;;;;;;5.37;4.93;;;;;;;-3.86;90.80;99569.44;5069202;28;20175;-78
2022/12/15 07:35:09;;;;;;;10.00;6.30;;;;;;;-3.92;91.16;99573.03;5070651;28;20624;-77
2022/12/15 07:37:34;;;;;;;6.67;6.03;;;;;;;-3.98;91.91;99574.81;5070331;28;20896;-77
2022/12/15 07:40:00;;;;;;;9.63;8.63;;;;;;;-3.88;92.28;99581.41;5070414;28;20174;-76
2022/12/15 07:42:28;;;;;;;9.07;8.17;;;;;;;-3.79;92.64;99578.09;5069344;28;20174;-78
2022/12/15 07:44:53;;;;;;;7.57;6.87;;;;;;;-3.75;93.07;99595.25;5070215;28;20209;-77
2022/12/15 07:47:19;;;;;;;7.27;6.57;;;;;;;-3.73;92.98;99595.81;5070700;28;20409;-78
2022/12/15 07:49:44;;;;;;;4.60;4.23;;;;;;;-3.69;93.19;99593.47;5069612;28;20428;-78
2022/12/15 07:52:10;;;;;;;7.27;6.67;;;;;;;-3.68;92.84;99589.75;5070353;28;20209;-78
2022/12/15 07:54:35;;;;;;;3.20;3.00;;;;;;;-3.61;92.83;99587.78;5070460;28;20536;-77
2022/12/15 07:57:01;;;;;;;12.37;8.13;;;;;;;-3.60;92.82;99592.06;5070594;28;20179;-76
2022/12/15 07:59:26;;;;;;;9.63;7.97;;;;;;;-3.52;92.82;99604.19;5070389;28;20579;-76
2022/12/15 08:01:52;;;;;;;3.77;3.43;;;;;;;-3.56;92.96;99603.06;5070093;28;20504;-76
2022/12/15 08:04:17;;;;;;;13.10;7.93;;;;;;;-3.59;92.95;99615.03;5069897;28;20214;-76
2022/12/15 08:06:43;;;;;;;19.87;8.40;;;;;;;-3.65;92.66;99606.09;5070827;28;20254;-77
2022/12/15 08:09:09;;;;;;;16.10;9.23;;;;;;;-3.65;93.14;99606.09;5070333;28;20229;-76
2022/12/15 08:11:35;;;;;;;21.53;13.67;;;;;;;-3.54;93.24;99607.09;5070230;28;20167;-77
2022/12/15 08:14:00;;;;;;;11.83;9.47;;;;;;;-3.50;93.33;99626.91;5069887;28;20633;-77
2022/12/15 08:16:26;;;;;;;11.20;9.97;;;;;;;-3.48;93.20;99629.34;5070016;28;20198;-78
2022/12/15 08:18:52;;;;;;;14.90;9.23;;;;;;;-3.57;93.15;99622.78;5069763;28;20211;-77
2022/12/15 08:21:17;;;;;;;10.27;6.93;;;;;;;-3.53;93.24;99631.94;5070027;28;20515;-77
2022/12/15 08:23:43;;;;;;;10.27;8.93;;;;;;;-3.52;92.98;99626.34;5071050;28;20545;-77
2022/12/15 08:26:13;;;;;;;9.60;6.63;;;;;;;-3.51;93.17;99621.81;5073671;28;20202;-78
2022/12/15 08:28:40;;;;;;;16.80;9.30;;;;;;;-3.46;93.24;99624.59;5072284;28;20317;-78
2022/12/15 08:31:12;;;;;;;12.03;8.17;;;;;;;-3.47;92.93;99630.97;5073306;28;20934;-77
2022/12/15 08:33:38;;;;;;;8.87;8.07;;;;;;;-3.46;92.69;99621.94;5073270;28;20466;-78
2022/12/15 08:36:07;;;;;;;8.27;6.80;;;;;;;-3.43;92.66;99622.25;5073291;28;20420;-78
2022/12/15 08:38:34;;;;;;;10.50;8.00;;;;;;;-3.41;92.38;99614.81;5073204;28;20878;-78
2022/12/15 08:41:11;;;;;;;4.00;3.70;;;;;;;-3.39;92.89;99617.25;5073331;28;20413;-77
2022/12/15 08:43:37;;;;;;;9.17;8.27;;;;;;;-3.28;92.71;99620.91;5073352;28;20418;-77
2022/12/15 08:46:03;;;;;;;12.17;7.53;;;;;;;-3.23;92.39;99635.16;5073097;28;20543;-77
2022/12/15 08:48:29;;;;;;;5.40;4.97;;;;;;;-3.14;92.37;99644.41;5073271;28;20417;-78
2022/12/15 08:50:55;;;;;;;5.30;4.90;;;;;;;-3.11;92.35;99632.41;5073171;28;20840;-78
2022/12/15 08:53:20;;;;;;;13.63;12.23;;;;;;;-3.09;92.39;99631.13;5072992;28;20709;-76
2022/12/15 08:55:46;;;;;;;10.57;8.13;;;;;;;-3.04;92.38;99633.88;5072897;28;20512;-77
2022/12/15 08:58:11;;;;;;;9.57;6.67;;;;;;;-3.03;92.35;99637.38;5072616;28;20227;-77
2022/12/15 09:00:36;;;;;;;7.57;5.90;;;;;;;-3.03;92.12;99630.16;5072789;28;20217;-77
2022/12/15 09:03:01;;;;;;;8.17;7.37;;;;;;;-3.03;91.70;99634.69;5072294;28;20187;-78
2022/12/15 09:05:27;;;;;;;8.90;7.53;;;;;;;-3.01;92.06;99637.94;5071228;28;20271;-77
2022/12/15 09:07:54;;;;;;;7.43;6.73;;;;;;;-3.01;91.74;99636.06;5072515;28;20684;-77
2022/12/15 09:10:20;;;;;;;7.37;6.70;;;;;;;-2.97;91.90;99655.09;5072597;28;20171;-78
2022/12/15 09:12:45;;;;;;;12.43;10.37;;;;;;;-2.88;91.61;99650.97;5072025;28;20423;-77
2022/12/15 09:15:11;;;;;;;5.80;5.27;;;;;;;-2.80;91.68;99644.41;5072674;28;20526;-78
2022/12/15 09:17:36;;;;;;;9.13;8.23;;;;;;;-2.74;91.37;99649.59;5071089;28;20171;-77
2022/12/15 09:20:02;;;;;;;6.00;5.40;;;;;;;-2.69;91.62;99651.53;5072107;28;20171;-77
2022/12/15 09:22:28;;;;;;;7.17;5.40;;;;;;;-2.63;91.85;99644.38;5072632;28;20183;-77
2022/12/15 09:24:53;;;;;;;9.53;6.77;;;;;;;-2.57;92.03;99654.94;5071999;28;20483;-78
2022/12/15 09:27:19;;;;;;;6.30;5.70;;;;;;;-2.53;91.70;99647.22;5072063;28;20185;-77
2022/12/15 09:29:45;;;;;;;6.53;5.93;;;;;;;-2.51;91.62;99645.91;5072444;28;20630;-77
2022/12/15 09:32:10;;;;;;;13.53;9.93;;;;;;;-2.49;91.43;99659.03;5071944;28;20443;-76
2022/12/15 09:34:35;;;;;;;3.57;3.27;;;;;;;-2.46;90.88;99651.34;5071932;28;20228;-77
2022/12/15 09:37:01;;;;;;;12.33;8.93;;;;;;;-2.46;91.04;99659.38;5072405;28;20664;-76
2022/12/15 09:39:26;;;;;;;13.87;10.37;;;;;;;-2.41;90.35;99654.09;5072235;28;20175;-77
2022/12/15 09:41:55;;;;;;;11.07;7.20;;;;;;;-2.34;91.07;99653.91;5072175;28;20254;-77
2022/12/15 09:44:23;;;;;;;14.13;6.27;;;;;;;-2.28;90.33;99662.81;5071938;28;20631;-77
2022/12/15 09:47:22;;;;;;;8.07;7.27;;;;;;;-2.21;90.47;99658.91;5072146;28;20413;-79
2022/12/15 09:49:55;;;;;;;8.50;6.03;;;;;;;-2.19;90.00;99666.69;5071990;28;20473;-77
2022/12/15 09:52:24;;;;;;;5.87;5.20;;;;;;;-2.13;90.31;99677.22;5072058;28;20421;-77
2022/12/15 09:54:49;;;;;;;14.10;7.50;;;;;;;-2.08;90.21;99672.97;5071971;28;20495;-76
2022/12/15 09:57:32;;;;;;;17.13;8.30;;;;;;;-2.02;90.42;99677.38;5070572;28;20938;-77
2022/12/15 10:00:24;;;;;;;8.40;6.47;;;;;;;-1.96;90.22;99671.81;5071919;28;20166;-77
2022/12/15 10:03:05;;;;;;;5.57;5.07;;;;;;;-1.89;90.29;99674.28;5070056;28;20433;-77
2022/12/15 10:05:44;;;;;;;12.17;8.10;;;;;;;-1.89;90.11;99677.78;5071487;28;20994;-77
2022/12/15 10:08:09;;;;;;;10.83;6.57;;;;;;;-1.81;89.69;99679.22;5071682;28;20765;-77
2022/12/15 10:10:45;;;;;;;8.03;7.23;;;;;;;-1.83;89.81;99681.34;5071498;28;20424;-77
2022/12/15 10:13:18;;;;;;;13.80;5.43;;;;;;;-1.76;90.00;99676.59;5071413;28;20166;-76
2022/12/15 10:15:57;;;;;;;11.33;9.37;;;;;;;-1.76;89.80;99684.63;5071489;28;20423;-78
2022/12/15 10:18:28;;;;;;;9.40;5.40;;;;;;;-1.73;89.51;99680.69;5071338;28;20413;-77
2022/12/15 10:21:00;;;;;;;6.73;6.23;;;;;;;-1.75;88.85;99674.72;5071177;28;20950;-78
2022/12/15 10:23:25;;;;;;;15.27;7.70;;;;;;;-1.72;88.72;99676.94;5070814;28;20444;-78
2022/12/15 10:26:15;;;;;;;6.90;6.30;;;;;;;-1.66;88.89;99678.59;5070874;28;20492;-77
2022/12/15 10:29:20;;;;;;;12.37;7.87;;;;;;;-1.67;89.02;99680.47;5071354;28;20163;-78
2022/12/15 10:31:58;;;;;;;10.43;7.10;;;;;;;-1.58;89.19;99683.53;5071200;28;20420;-77
2022/12/15 10:34:28;;;;;;;8.13;7.43;;;;;;;-1.59;89.19;99687.25;5070947;28;20432;-79
2022/12/15 10:36:54;;;;;;;9.23;8.43;;;;;;;-1.52;88.79;99687.88;5070861;28;20416;-79
2022/12/15 10:39:21;;;;;;;6.63;5.13;;;;;;;-1.50;89.00;99688.44;5070737;28;20826;-79
2022/12/15 10:42:19;;;;;;;8.20;7.50;;;;;;;-1.50;89.42;99694.59;5070883;28;20438;-76
2022/12/15 10:44:47;;;;;;;8.70;7.83;;;;;;;-1.49;88.72;99687.38;5070884;28;20448;-77
2022/12/15 10:47:23;;;;;;;7.37;6.67;;;;;;;-1.41;88.68;99694.97;5070202;28;20504;-77
2022/12/15 10:49:49;;;;;;;6.53;5.30;;;;;;;-1.37;88.80;99688.03;5070729;28;20427;-76
2022/12/15 10:52:35;;;;;;;9.30;7.50;;;;;;;-1.33;88.18;99688.34;5070983;28;20803;-76
2022/12/15 10:55:21;;;;;;;7.30;6.70;;;;;;;-1.28;88.19;99699.94;5070628;28;20189;-78
2022/12/15 10:57:58;;;;;;;14.17;6.83;;;;;;;-1.22;88.42;99682.03;5069378;28;20424;-73
2022/12/15 11:00:28;;;;;;;6.27;5.70;;;;;;;-1.16;88.24;99685.56;5070622;28;20421;-75
2022/12/15 11:02:53;;;;;;;7.33;4.90;;;;;;;-1.11;87.78;99682.94;5070244;28;20579;-76
2022/12/15 11:05:19;;;;;;;10.77;2.97;;;;;;;-1.08;87.78;99680.56;5068947;28;20555;-76
2022/12/15 11:07:49;;;;;;;3.37;3.17;;;;;;;-1.06;87.20;99683.00;5070847;28;20202;-76
2022/12/15 11:10:26;;;;;;;4.60;4.20;;;;;;;-1.00;87.43;99690.03;5070740;28;20914;-76
2022/12/15 11:13:17;;;;;;;9.80;4.47;;;;;;;-0.91;87.67;99689.28;5070365;28;20761;-75
2022/12/15 11:15:44;;;;;;;7.53;6.10;;;;;;;-0.97;87.46;99689.50;5070494;28;20432;-76
2022/12/15 11:18:12;;;;;;;4.10;3.67;;;;;;;-0.87;87.62;99691.47;5070465;28;20428;-77
2022/12/15 11:20:42;;;;;;;4.07;3.73;;;;;;;-0.76;87.30;99690.50;5069444;28;20769;-77
2022/12/15 11:23:16;;;;;;;1.70;0.87;;;;;;;-0.66;86.90;99688.72;5069904;28;20938;-77
2022/12/15 11:25:44;;;;;;;0.00;0.00;;;;;;;-0.53;87.05;99700.06;5069148;28;20978;-78
2022/12/15 11:28:28;;;;;;;6.40;3.27;;;;;;;-0.45;86.91;99697.72;5070776;28;20562;-77
2022/12/15 11:31:05;;;;;;;1.57;1.47;;;;;;;-0.37;86.75;99699.13;5070451;28;20472;-78
2022/12/15 11:33:30;;;;;;;6.30;1.47;;;;;;;-0.33;86.89;99710.94;5070334;28;20408;-78
2022/12/15 11:35:56;;;;;;;1.87;1.77;;;;;;;-0.27;87.13;99696.50;5068881;28;20436;-77
2022/12/15 11:38:24;;;;;;;0.40;0.40;;;;;;;-0.15;86.44;99691.72;5070335;28;20572;-75
2022/12/15 11:40:50;;;;;;;1.80;1.37;;;;;;;-0.10;86.51;99689.09;5070402;28;20190;-78
2022/12/15 11:43:54;;;;;;;3.83;3.63;;;;;;;-0.06;86.56;99692.06;5070027;28;20425;-78
2022/12/15 11:46:21;;;;;;;2.17;2.07;;;;;;;-0.01;86.66;99687.53;5070299;28;20516;-77
2022/12/15 11:48:46;;;;;;;3.17;2.97;;;;;;;-0.01;86.23;99692.09;5070183;28;20424;-77
2022/12/15 11:51:40;;;;;;;3.40;3.13;;;;;;;-0.02;85.79;99696.66;5070056;28;20417;-78
2022/12/15 11:54:33;;;;;;;8.10;3.20;;;;;;;-0.07;85.58;99706.56;5059870;28;20187;-78
2022/12/15 11:57:17;;;;;;;3.93;3.63;;;;;;;0.01;85.73;99702.59;5061249;28;20486;-79
2022/12/15 11:59:48;;;;;;;10.30;5.07;;;;;;;0.05;85.27;99701.00;5074074;28;20533;-78
2022/12/15 12:02:25;;;;;;;4.63;4.27;;;;;;;0.07;84.83;99696.16;5074292;28;20488;-78
2022/12/15 12:05:27;;;;;;;5.27;3.60;;;;;;;0.02;84.11;99688.09;5073734;28;20456;-78
2022/12/15 12:08:20;;;;;;;1.60;1.50;;;;;;;0.08;84.37;99697.78;5073190;28;20434;-78
2022/12/15 12:11:24;;;;;;;2.37;1.90;;;;;;;0.08;84.76;99697.78;5072448;28;20424;-78
2022/12/15 12:14:12;;;;;;;3.07;2.20;;;;;;;0.09;83.99;99691.34;5073572;28;20413;-78
2022/12/15 12:17:06;;;;;;;0.87;0.87;;;;;;;0.09;84.31;99685.97;5073900;28;20400;-78
2022/12/15 12:19:44;;;;;;;5.93;5.33;;;;;;;0.05;84.39;99680.31;5073925;28;20423;-79
2022/12/15 12:22:26;;;;;;;7.37;3.40;;;;;;;0.04;84.06;99678.72;5073509;28;20448;-78
2022/12/15 12:24:59;;;;;;;1.70;1.67;;;;;;;0.10;84.45;99676.84;5073248;28;20601;-78
2022/12/15 12:27:58;;;;;;;5.73;2.67;;;;;;;0.15;84.38;99668.84;5073655;28;20409;-78
2022/12/15 12:30:28;;;;;;;1.40;1.30;;;;;;;0.17;84.25;99672.06;5073308;28;20489;-78
2022/12/15 12:33:23;;;;;;;4.73;4.33;;;;;;;0.12;84.43;99669.31;5072832;28;20439;-78
2022/12/15 12:36:01;;;;;;;2.57;1.97;;;;;;;0.12;84.37;99674.69;5073376;28;20464;-79
2022/12/15 12:38:37;;;;;;;3.70;2.87;;;;;;;0.07;84.31;99674.69;5073338;28;20455;-78
2022/12/15 12:41:21;;;;;;;5.97;5.47;;;;;;;0.02;84.64;99680.03;5073707;28;20412;-79
2022/12/15 12:43:51;;;;;;;5.40;4.87;;;;;;;-0.05;84.61;99683.75;5071774;28;20421;-77
2022/12/15 12:46:29;;;;;;;4.10;3.80;;;;;;;-0.05;84.69;99678.38;5073378;28;20463;-78
2022/12/15 12:49:04;;;;;;;3.93;3.57;;;;;;;-0.05;84.90;99674.88;5072853;28;20408;-77
2022/12/15 12:51:36;;;;;;;2.30;2.20;;;;;;;-0.05;84.97;99678.38;5073224;28;20739;-78
2022/12/15 12:54:29;;;;;;;4.80;4.40;;;;;;;-0.15;84.29;99672.94;5072990;28;20409;-78
2022/12/15 12:56:55;;;;;;;7.20;2.40;;;;;;;-0.22;83.97;99672.38;5058410;28;20436;-78
2022/12/15 12:59:29;;;;;;;4.30;3.90;;;;;;;-0.24;84.02;99681.75;5072947;28;20981;-78
2022/12/15 13:01:55;;;;;;;9.00;5.40;;;;;;;-0.28;83.96;99678.81;5072780;28;20162;-77
2022/12/15 13:04:26;;;;;;;4.93;3.17;;;;;;;-0.28;83.97;99675.31;5072455;28;20460;-78
2022/12/15 13:06:57;;;;;;;2.93;2.20;;;;;;;-0.25;84.64;99677.47;5071237;28;20508;-78
2022/12/15 13:09:24;;;;;;;6.83;3.77;;;;;;;-0.22;84.46;99680.44;5072081;28;20409;-78
2022/12/15 13:11:52;;;;;;;21.80;3.70;;;;;;;-0.16;84.19;99663.28;5073096;28;20497;-78
2022/12/15 13:14:24;;;;;;;3.30;3.00;;;;;;;-0.12;84.29;99663.59;5072324;28;20440;-77
2022/12/15 13:16:55;;;;;;;4.47;3.90;;;;;;;-0.12;84.69;99664.41;5072714;28;20968;-78
2022/12/15 13:19:55;;;;;;;5.70;5.13;;;;;;;-0.12;84.63;99669.75;5073010;28;20419;-78
2022/12/15 13:22:34;;;;;;;4.67;3.80;;;;;;;-0.12;84.37;99672.44;5072936;28;20424;-79
2022/12/15 13:25:01;;;;;;;5.43;4.90;;;;;;;-0.11;84.28;99663.31;5071617;28;20507;-79
2022/12/15 13:27:37;;;;;;;4.97;1.83;;;;;;;-0.10;84.82;99673.00;5072872;28;20421;-78
2022/12/15 13:30:08;;;;;;;5.50;3.87;;;;;;;-0.07;84.15;99674.34;5071765;28;20420;-79
2022/12/15 13:32:38;;;;;;;11.83;4.03;;;;;;;-0.08;84.42;99667.38;5072914;28;20417;-78
2022/12/15 13:35:29;;;;;;;4.67;2.97;;;;;;;-0.09;84.64;99666.56;5073195;28;20414;-78
2022/12/15 13:37:57;;;;;;;0.10;0.10;;;;;;;-0.07;84.83;99660.91;5073201;28;20489;-77
2022/12/15 13:40:23;;;;;;;3.67;3.33;;;;;;;-0.09;84.34;99663.88;5072849;28;20452;-79
2022/12/15 13:42:57;;;;;;;4.10;3.70;;;;;;;-0.14;84.85;99671.09;5071156;28;20461;-78
2022/12/15 13:45:45;;;;;;;2.87;2.33;;;;;;;-0.14;84.62;99679.97;5072763;28;20225;-78
2022/12/15 13:48:28;;;;;;;4.00;2.10;;;;;;;-0.15;84.11;99680.19;5071308;28;20474;-77
2022/12/15 13:51:25;;;;;;;2.50;2.33;;;;;;;-0.22;84.34;99679.63;5071913;28;20421;-78
2022/12/15 13:54:10;;;;;;;0.20;0.20;;;;;;;-0.31;84.51;99676.59;5079618;28;20425;-78
2022/12/15 13:56:51;;;;;;;1.13;1.13;;;;;;;-0.28;84.83;99678.81;5072154;28;20417;-77
2022/12/15 13:59:32;;;;;;;1.23;1.17;;;;;;;-0.31;84.39;99674.72;5070755;28;20421;-77
2022/12/15 14:01:58;;;;;;;27.10;1.93;;;;;;;-0.37;84.47;99681.16;5071898;28;20783;-78
2022/12/15 14:04:24;;;;;;;0.37;0.37;;;;;;;-0.39;84.47;99674.44;5072244;28;20793;-77
2022/12/15 14:06:56;;;;;;;0.43;0.43;;;;;;;-0.42;84.17;99680.31;5072420;28;20480;-77
2022/12/15 14:09:28;;;;;;;1.27;1.17;;;;;;;-0.48;84.37;99674.09;5071811;28;20466;-78
2022/12/15 14:11:54;;;;;;;0.53;0.53;;;;;;;-0.52;85.29;99670.31;5071886;28;20411;-77
2022/12/15 14:14:24;;;;;;;2.73;2.53;;;;;;;-0.68;85.24;99664.03;5070262;28;20417;-78
2022/12/15 14:16:57;;;;;;;3.27;2.53;;;;;;;-0.86;86.51;99675.16;5072210;28;20171;-78